RJAW/IWO METAR and TAF weather

Enter ICAO airport designator
Station Type Date Time Source
RJAW METAR 2021/02/27 09:00 UTC NOAA

RJAW 270900Z 05022G33KT 4000 SHRA BR FEW008 BKN015 19/18 Q1012 RMK 2ST008 7CU015 A2989


Station Type Date Time Source
RJAW Decoded METAR 2021/02/27 09:00 UTC NOAA

Iwojima, Japan (RJAW) 24-47N 141-19E 116M
Feb 27, 2021 - 04:00 AM EST / 2021.02.27 0900 UTC
Wind: from the NE (050 degrees) at 25 MPH (22 KT) gusting to 38 MPH (33 KT):0
Visibility: 2 mile(s):0
Sky conditions: mostly cloudy
Weather: rain showers; mist
Temperature: 66 F (19 C)
Dew Point: 64 F (18 C)
Relative Humidity: 93%
Pressure (altimeter): 29.88 in. Hg (1012 hPa)
ob: RJAW 270900Z 05022G33KT 4000 SHRA BR FEW008 BKN015 19/18 Q1012 RMK 2ST008 7CU015 A2989
cycle: 9

Station Type Date Time Source
RJAW TAF UTC NOAA

Error!

Example: see airport list